Time;durP1;ratioP1;P1;durP2;ratioP2;P2;SDS_P1;SDS_P2;PMS_P1;PMS_P2;Temp;Humidity;BMP_temperature;BMP_pressure;BME280_temperature;BME280_humidity;BME280_pressure;Samples;Min_cycle;Max_cycle;Signal;HPM_P1;HPM_P2
2023/02/07 07:29:35;;;;;;;1.70;1.60;;;19.90;56.20;;;;;;6206391;22;1238177;-89
2023/02/07 07:32:02;;;;;;;7.23;2.00;;;19.90;56.30;;;;;;6219348;23;20220;-96
2023/02/07 07:34:29;;;;;;;2.40;2.10;;;19.90;56.40;;;;;;6220374;23;20413;-87
2023/02/07 07:36:55;;;;;;;2.30;2.00;;;19.90;56.30;;;;;;6222159;23;20470;-88
2023/02/07 07:39:22;;;;;;;1.90;1.70;;;19.80;56.10;;;;;;6220839;23;20449;-87
2023/02/07 07:41:49;;;;;;;1.70;1.60;;;19.80;56.20;;;;;;6220739;23;20407;-94
2023/02/07 07:44:16;;;;;;;1.80;1.70;;;19.80;56.10;;;;;;6221322;23;20766;-93
2023/02/07 07:46:45;;;;;;;2.03;1.70;;;19.80;56.10;;;;;;6219189;23;20520;-86
2023/02/07 07:49:12;;;;;;;1.93;1.80;;;19.80;56.10;;;;;;6221386;23;20892;-92
2023/02/07 07:51:39;;;;;;;1.97;1.87;;;19.80;56.10;;;;;;6219505;23;20513;-94
2023/02/07 07:54:06;;;;;;;3.50;1.97;;;19.80;56.10;;;;;;6221371;23;20412;-88
2023/02/07 07:56:34;;;;;;;1.83;1.73;;;19.80;56.10;;;;;;6223697;23;20410;-88
2023/02/07 07:59:02;;;;;;;2.00;1.80;;;20.00;56.20;;;;;;6227451;23;20445;-88
2023/02/07 08:01:29;;;;;;;1.50;1.40;;;20.00;56.20;;;;;;6223760;23;20443;-96
2023/02/07 08:03:57;;;;;;;2.80;2.07;;;19.80;56.10;;;;;;6220250;23;20416;-88
2023/02/07 08:06:24;;;;;;;1.90;1.80;;;19.80;56.00;;;;;;6218603;23;20526;-88
2023/02/07 08:08:51;;;;;;;3.50;1.80;;;19.80;56.00;;;;;;6224276;23;20433;-89
2023/02/07 08:11:18;;;;;;;1.97;1.87;;;19.80;56.00;;;;;;6221455;23;20465;-93
2023/02/07 08:17:06;;;;;;;2.03;1.83;;;19.80;56.00;;;;;;6219786;23;20361;-88
2023/02/07 08:19:37;;;;;;;2.30;2.10;;;19.70;56.00;;;;;;6217649;23;20960;-91
2023/02/07 08:22:04;;;;;;;1.60;1.50;;;19.70;56.00;;;;;;6218020;23;20398;-88
2023/02/07 08:27:53;;;;;;;2.17;1.97;;;19.70;55.90;;;;;;6217436;23;20871;-87
2023/02/07 08:30:21;;;;;;;1.80;1.60;;;19.70;56.00;;;;;;6216910;23;20498;-88
2023/02/07 08:32:47;;;;;;;2.10;2.00;;;19.70;55.90;;;;;;6190694;23;20552;-85
2023/02/07 08:35:16;;;;;;;1.67;1.57;;;19.70;55.90;;;;;;6217327;23;20774;-84
2023/02/07 08:37:42;;;;;;;3.40;1.97;;;19.70;55.80;;;;;;6217432;23;20436;-85
2023/02/07 08:40:10;;;;;;;1.80;1.70;;;19.70;55.80;;;;;;6217050;23;20477;-89
2023/02/07 08:42:37;;;;;;;2.37;2.17;;;19.70;55.80;;;;;;6217463;23;20398;-88
2023/02/07 08:45:04;;;;;;;2.07;1.87;;;19.70;55.90;;;;;;6217198;23;20488;-89
2023/02/07 08:47:31;;;;;;;1.80;1.70;;;19.70;55.90;;;;;;6191157;23;20407;-86
2023/02/07 08:49:58;;;;;;;2.23;2.00;;;19.70;55.90;;;;;;6218354;23;20489;-89
2023/02/07 08:52:27;;;;;;;2.20;2.00;;;19.80;56.10;;;;;;6217092;23;20545;-86
2023/02/07 08:54:54;;;;;;;2.20;2.00;;;20.00;56.20;;;;;;6217425;23;20409;-90
2023/02/07 08:57:21;;;;;;;2.13;1.90;;;19.80;55.90;;;;;;6216937;23;20500;-87
2023/02/07 08:59:50;;;;;;;2.13;2.03;;;19.90;55.90;;;;;;6216834;23;20402;-88
2023/02/07 09:02:17;;;;;;;3.00;2.47;;;19.90;55.80;;;;;;6217324;23;20791;-88
2023/02/07 09:04:43;;;;;;;1.80;1.70;;;19.90;55.70;;;;;;6218789;23;20402;-85
2023/02/07 09:07:10;;;;;;;2.10;1.90;;;20.00;55.50;;;;;;6218614;23;20435;-87
2023/02/07 09:09:39;;;;;;;2.33;1.83;;;20.00;55.50;;;;;;6217742;23;20430;-90
2023/02/07 09:12:07;;;;;;;1.80;1.70;;;20.10;55.50;;;;;;6217079;23;20440;-86
2023/02/07 09:17:55;;;;;;;2.20;2.00;;;20.20;55.40;;;;;;6217003;23;20686;-89
2023/02/07 09:20:22;;;;;;;1.73;1.63;;;20.10;55.30;;;;;;6216957;23;20891;-88
2023/02/07 09:25:37;;;;;;;1.73;1.63;;;20.20;55.30;;;;;;6219673;23;20374;-89
2023/02/07 09:28:05;;;;;;;1.70;1.60;;;20.20;55.30;;;;;;6219591;23;20413;-89
2023/02/07 09:30:33;;;;;;;1.90;1.80;;;20.30;55.40;;;;;;6218243;23;20461;-92
2023/02/07 09:33:00;;;;;;;3.00;1.73;;;20.30;55.30;;;;;;6220058;23;20821;-89
2023/02/07 09:35:27;;;;;;;1.90;1.80;;;20.30;55.30;;;;;;6218563;23;20777;-88
2023/02/07 09:37:55;;;;;;;1.83;1.40;;;20.30;55.40;;;;;;6217196;23;20478;-90
2023/02/07 09:40:22;;;;;;;3.30;1.70;;;20.30;55.40;;;;;;6217591;23;20493;-87
2023/02/07 09:42:59;;;;;;;2.33;2.13;;;20.30;55.50;;;;;;6218550;23;20406;-86
2023/02/07 09:45:30;;;;;;;2.07;1.93;;;20.40;55.60;;;;;;6217700;23;20429;-93
2023/02/07 09:48:03;;;;;;;1.70;1.60;;;20.30;55.60;;;;;;6217109;23;20390;-89
2023/02/07 09:50:32;;;;;;;2.40;1.77;;;20.30;55.60;;;;;;6216945;23;20394;-92
2023/02/07 09:53:04;;;;;;;1.63;1.53;;;20.30;55.70;;;;;;6225619;23;20455;-91
2023/02/07 09:55:37;;;;;;;1.70;1.60;;;20.30;55.70;;;;;;6243934;23;20402;-87
2023/02/07 09:58:11;;;;;;;2.10;1.90;;;20.30;55.60;;;;;;6230159;23;20399;-89
2023/02/07 10:00:41;;;;;;;1.60;1.50;;;20.40;55.70;;;;;;6218566;23;20398;-91
2023/02/07 10:03:13;;;;;;;2.00;1.77;;;20.30;55.60;;;;;;6219974;23;20893;-87
2023/02/07 10:05:44;;;;;;;1.70;1.60;;;20.40;55.70;;;;;;6220583;23;20396;-94
2023/02/07 10:08:14;;;;;;;1.63;1.43;;;20.60;55.80;;;;;;6220199;23;20385;-90
2023/02/07 10:10:45;;;;;;;1.80;1.70;;;20.40;55.70;;;;;;6219882;23;20439;-90
2023/02/07 10:13:36;;;;;;;1.77;1.47;;;20.40;55.70;;;;;;6219757;23;20936;-90
2023/02/07 10:16:19;;;;;;;1.40;1.30;;;20.40;55.70;;;;;;6220160;23;20397;-88
2023/02/07 10:18:50;;;;;;;1.80;1.57;;;20.40;55.70;;;;;;6219956;23;20396;-88
2023/02/07 10:21:27;;;;;;;1.60;1.50;;;20.40;55.70;;;;;;6195505;23;20473;-90
2023/02/07 10:24:16;;;;;;;1.50;1.30;;;20.50;55.70;;;;;;6221686;23;20883;-91
2023/02/07 18:36:58;;;;;;;2.10;1.30;;;20.90;56.20;;;;;;6245387;22;20899;-85
2023/02/07 18:39:25;;;;;;;2.90;1.10;;;20.90;56.20;;;;;;6221200;23;20481;-91
2023/02/07 18:41:53;;;;;;;1.30;1.13;;;21.10;56.30;;;;;;6192157;23;20429;-86
2023/02/07 18:44:20;;;;;;;2.03;1.30;;;21.00;56.20;;;;;;6218532;23;20920;-90
2023/02/07 18:46:47;;;;;;;1.30;1.20;;;21.00;56.10;;;;;;6218703;23;20403;-87
2023/02/07 18:49:14;;;;;;;2.60;1.20;;;21.00;56.10;;;;;;6218449;23;20406;-85
2023/02/07 18:51:41;;;;;;;1.43;1.27;;;21.00;56.20;;;;;;6218811;23;20728;-88
2023/02/07 18:54:09;;;;;;;1.87;1.00;;;21.00;56.30;;;;;;6218583;23;20442;-85
2023/02/07 18:56:36;;;;;;;1.30;1.20;;;21.00;56.50;;;;;;6218793;23;20397;-88
2023/02/07 18:59:04;;;;;;;2.17;1.20;;;21.00;56.60;;;;;;6228830;23;20738;-85
2023/02/07 19:01:33;;;;;;;1.47;1.20;;;21.00;56.50;;;;;;6227553;23;20398;-85
2023/02/07 19:04:01;;;;;;;5.97;1.40;;;21.00;56.60;;;;;;6241041;23;20410;-83
2023/02/07 19:06:30;;;;;;;1.67;1.33;;;21.00;56.50;;;;;;6220495;23;20453;-85
2023/02/07 19:08:57;;;;;;;3.80;1.23;;;21.00;56.60;;;;;;6219201;23;20418;-84
2023/02/07 19:11:26;;;;;;;1.40;1.30;;;21.00;56.80;;;;;;6218348;23;20398;-85
2023/02/07 19:13:53;;;;;;;2.07;1.73;;;21.00;56.70;;;;;;6217927;23;20437;-87
2023/02/07 19:16:22;;;;;;;2.03;1.43;;;21.00;56.80;;;;;;6217509;23;20434;-91
2023/02/07 19:18:50;;;;;;;1.97;1.17;;;21.00;56.80;;;;;;6217971;23;20731;-86
2023/02/07 19:21:20;;;;;;;1.70;1.53;;;21.20;57.00;;;;;;6218238;23;20705;-86
2023/02/07 19:23:47;;;;;;;1.50;1.37;;;21.00;56.90;;;;;;6218177;23;20390;-89
2023/02/07 19:26:14;;;;;;;1.73;1.63;;;21.20;57.10;;;;;;6217827;23;20416;-92
2023/02/07 19:28:42;;;;;;;1.90;1.20;;;21.00;57.10;;;;;;6217928;23;20412;-88
2023/02/07 19:31:16;;;;;;;2.37;1.20;;;20.90;57.00;;;;;;6217995;23;20398;-86
2023/02/07 19:33:43;;;;;;;2.53;1.50;;;20.90;57.00;;;;;;6217250;23;20438;-91
2023/02/07 19:36:11;;;;;;;1.93;1.63;;;20.90;57.00;;;;;;6217506;23;20402;-85
2023/02/07 19:38:38;;;;;;;2.27;1.57;;;20.90;57.10;;;;;;6217249;23;20438;-86
2023/02/07 19:41:06;;;;;;;3.10;1.23;;;20.90;57.00;;;;;;6217806;23;20406;-87
2023/02/07 19:43:34;;;;;;;1.33;1.23;;;20.90;57.10;;;;;;6217707;23;20401;-86
2023/02/07 19:46:02;;;;;;;2.03;1.30;;;20.90;57.00;;;;;;6217669;23;20402;-90
2023/02/07 19:48:29;;;;;;;1.30;1.13;;;20.90;57.10;;;;;;6218195;23;20947;-88
2023/02/07 19:50:58;;;;;;;1.40;1.30;;;20.90;57.00;;;;;;6217862;23;20409;-88
2023/02/07 19:53:25;;;;;;;2.27;1.20;;;20.90;57.00;;;;;;6217095;23;20441;-87
2023/02/07 19:55:53;;;;;;;1.80;1.40;;;20.90;57.00;;;;;;6216998;23;20410;-88
2023/02/07 19:58:20;;;;;;;1.70;1.37;;;20.90;57.00;;;;;;6217307;23;20784;-88
2023/02/07 20:00:46;;;;;;;3.67;1.57;;;20.90;57.00;;;;;;6217461;23;20425;-86
2023/02/07 20:03:15;;;;;;;1.60;1.33;;;20.90;57.00;;;;;;6217136;23;20398;-89
2023/02/07 20:05:43;;;;;;;1.70;1.60;;;20.90;57.00;;;;;;6217785;23;20409;-86
2023/02/07 20:08:11;;;;;;;4.97;1.80;;;20.80;57.00;;;;;;6218978;23;20402;-86
2023/02/07 20:10:41;;;;;;;2.70;1.47;;;20.80;57.00;;;;;;6217414;23;20877;-87
2023/02/07 20:13:08;;;;;;;1.77;1.67;;;20.80;56.90;;;;;;6217470;23;20438;-86
2023/02/07 20:15:39;;;;;;;3.10;1.87;;;20.80;56.90;;;;;;6217353;23;20405;-86
2023/02/07 20:18:06;;;;;;;1.60;1.50;;;20.90;56.80;;;;;;6217337;23;20394;-86
2023/02/07 20:20:35;;;;;;;1.77;1.63;;;20.80;56.70;;;;;;6217679;23;20403;-86
2023/02/07 20:23:01;;;;;;;1.87;1.67;;;20.80;56.80;;;;;;6217170;23;20404;-86
2023/02/07 20:25:32;;;;;;;1.87;1.70;;;20.80;56.80;;;;;;6217114;23;20428;-86
2023/02/07 20:27:59;;;;;;;2.63;1.63;;;20.80;56.80;;;;;;6217212;23;20469;-87
2023/02/07 20:30:26;;;;;;;1.50;1.40;;;20.80;56.80;;;;;;6217227;23;20402;-86
2023/02/07 20:32:53;;;;;;;1.63;1.53;;;20.80;56.80;;;;;;6216915;23;20908;-86
2023/02/07 20:35:21;;;;;;;2.27;2.07;;;20.80;56.90;;;;;;6217346;23;20406;-86
2023/02/07 20:37:49;;;;;;;2.37;1.70;;;20.80;56.90;;;;;;6216708;23;20434;-87
2023/02/07 20:40:16;;;;;;;3.00;1.83;;;20.90;57.00;;;;;;6216797;23;20881;-87
2023/02/07 20:42:44;;;;;;;2.00;1.90;;;20.80;57.00;;;;;;6216715;23;20398;-87
2023/02/07 20:45:11;;;;;;;1.50;1.40;;;20.70;56.90;;;;;;6216912;23;20396;-86
2023/02/07 20:47:38;;;;;;;3.30;2.10;;;20.80;57.10;;;;;;6217025;23;20395;-88
2023/02/07 20:50:05;;;;;;;2.10;1.87;;;20.70;57.10;;;;;;6217201;23;20398;-87
2023/02/07 20:52:32;;;;;;;2.80;1.90;;;20.70;57.10;;;;;;6217075;23;20403;-86
2023/02/07 20:55:00;;;;;;;1.50;1.30;;;20.80;57.30;;;;;;6217133;23;20982;-87
2023/02/07 20:57:27;;;;;;;1.83;1.50;;;20.90;57.30;;;;;;6217074;23;20402;-88
2023/02/07 20:59:54;;;;;;;2.23;1.73;;;20.70;57.20;;;;;;6217536;23;20911;-87
2023/02/07 21:02:21;;;;;;;2.80;2.07;;;20.70;57.20;;;;;;6217089;23;20405;-90
2023/02/07 21:04:47;;;;;;;1.97;1.77;;;20.70;57.20;;;;;;6217288;23;20406;-89
2023/02/07 21:07:14;;;;;;;2.03;1.83;;;20.80;57.30;;;;;;6230282;23;20461;-89
2023/02/07 21:09:41;;;;;;;2.00;1.90;;;20.90;57.30;;;;;;6245173;23;20386;-89
2023/02/07 21:12:09;;;;;;;1.60;1.50;;;20.80;57.30;;;;;;6231737;23;20409;-90
2023/02/07 21:14:36;;;;;;;8.23;1.80;;;20.80;57.20;;;;;;6217157;23;20464;-89
2023/02/07 21:17:06;;;;;;;3.23;1.70;;;20.80;57.20;;;;;;6217348;23;20429;-89
2023/02/07 21:19:33;;;;;;;1.67;1.57;;;21.00;57.40;;;;;;6217498;23;20402;-89
2023/02/07 21:22:04;;;;;;;1.97;1.83;;;20.80;57.40;;;;;;6217252;23;20465;-85
2023/02/07 21:24:31;;;;;;;2.57;1.60;;;20.80;57.60;;;;;;6217378;23;20858;-86
2023/02/07 21:26:58;;;;;;;2.30;2.10;;;20.80;57.70;;;;;;6217025;23;20403;-84
2023/02/07 21:29:26;;;;;;;4.07;1.93;;;20.80;57.60;;;;;;6218043;23;20398;-94
2023/02/07 21:31:53;;;;;;;2.10;1.93;;;20.80;57.50;;;;;;6216822;23;20457;-85
2023/02/07 21:34:21;;;;;;;2.07;1.97;;;20.80;57.40;;;;;;6217093;23;20533;-85
2023/02/07 21:36:48;;;;;;;2.30;2.10;;;20.80;57.50;;;;;;6216220;23;20416;-85
2023/02/07 21:39:17;;;;;;;1.77;1.67;;;20.80;57.50;;;;;;6216534;23;20469;-84
2023/02/07 21:41:46;;;;;;;2.00;1.80;;;20.80;57.40;;;;;;6216425;23;20397;-90
2023/02/07 21:44:14;;;;;;;3.33;2.37;;;20.80;57.50;;;;;;6216684;23;20398;-84
2023/02/07 21:46:45;;;;;;;2.37;1.83;;;20.80;57.50;;;;;;6216728;23;20398;-86
2023/02/07 21:49:14;;;;;;;2.90;1.83;;;20.80;57.50;;;;;;6216608;23;20391;-86
2023/02/07 21:51:42;;;;;;;3.60;2.20;;;20.80;57.40;;;;;;6216937;23;20403;-85
2023/02/07 21:54:09;;;;;;;2.07;1.90;;;20.80;57.30;;;;;;6216708;23;20448;-85
2023/02/07 21:56:38;;;;;;;2.50;2.30;;;20.80;57.20;;;;;;6216456;23;20404;-85
2023/02/07 21:59:07;;;;;;;2.67;2.30;;;20.80;57.20;;;;;;6216810;23;20413;-88
2023/02/07 22:01:35;;;;;;;2.17;1.97;;;20.80;57.20;;;;;;6216881;23;20480;-86
2023/02/07 22:04:04;;;;;;;3.17;2.30;;;20.90;57.30;;;;;;6216779;23;20406;-87
2023/02/07 22:06:32;;;;;;;2.60;1.90;;;20.80;57.30;;;;;;6216918;23;20408;-86
2023/02/07 22:09:00;;;;;;;3.33;2.17;;;20.80;57.20;;;;;;6216621;23;20402;-86
2023/02/07 22:11:30;;;;;;;1.60;1.43;;;20.70;57.10;;;;;;6216486;23;20408;-86
2023/02/07 22:13:57;;;;;;;3.23;3.00;;;20.70;57.10;;;;;;6216168;23;20441;-86
2023/02/07 22:16:25;;;;;;;2.13;1.93;;;20.70;57.00;;;;;;6216879;23;20401;-86
2023/02/07 22:18:53;;;;;;;2.90;2.13;;;20.70;57.10;;;;;;6216435;23;20915;-87
2023/02/07 22:21:23;;;;;;;2.30;2.10;;;20.70;57.00;;;;;;6216964;23;20399;-87
2023/02/07 22:23:51;;;;;;;3.43;1.80;;;20.90;57.20;;;;;;6216916;23;20680;-86
2023/02/07 22:26:18;;;;;;;3.57;2.30;;;20.60;57.00;;;;;;6216340;23;20398;-86
2023/02/07 22:28:45;;;;;;;2.40;2.20;;;20.60;56.90;;;;;;6216347;23;20404;-86
2023/02/07 22:31:17;;;;;;;2.30;2.10;;;20.60;56.90;;;;;;6216652;23;20400;-86
2023/02/07 22:33:44;;;;;;;2.23;2.03;;;20.60;56.90;;;;;;6216501;23;20429;-86
2023/02/07 22:36:13;;;;;;;2.30;2.10;;;20.60;56.90;;;;;;6216559;23;20413;-86
2023/02/07 22:38:41;;;;;;;2.10;1.90;;;20.60;56.90;;;;;;6216164;23;20434;-86
2023/02/07 22:41:09;;;;;;;1.83;1.73;;;20.60;56.90;;;;;;6216447;23;20407;-86
2023/02/07 22:43:36;;;;;;;2.40;2.23;;;20.50;56.80;;;;;;6216611;23;20412;-86
2023/02/07 22:46:04;;;;;;;2.90;1.97;;;20.50;56.80;;;;;;6216145;23;20402;-90
2023/02/07 22:48:31;;;;;;;2.87;2.67;;;20.50;56.80;;;;;;6216374;23;20408;-86
2023/02/07 22:50:58;;;;;;;2.43;2.23;;;20.50;56.80;;;;;;6216264;23;20402;-86
2023/02/07 22:53:25;;;;;;;2.37;2.17;;;20.50;56.80;;;;;;6216449;23;20404;-86
2023/02/07 22:55:53;;;;;;;2.33;2.10;;;20.50;56.70;;;;;;6216153;23;20406;-86
2023/02/07 22:58:20;;;;;;;2.60;2.40;;;20.50;56.70;;;;;;6216256;23;20468;-86
2023/02/07 23:00:47;;;;;;;2.70;2.10;;;20.50;56.70;;;;;;6216366;23;20402;-86
2023/02/07 23:03:13;;;;;;;3.20;1.80;;;20.50;56.70;;;;;;6216599;23;20417;-86
2023/02/07 23:05:40;;;;;;;2.27;1.80;;;20.40;56.60;;;;;;6216303;23;20408;-86
2023/02/07 23:08:07;;;;;;;2.47;2.27;;;20.40;56.60;;;;;;6217421;23;20493;-85
2023/02/07 23:10:34;;;;;;;1.90;1.80;;;20.60;56.80;;;;;;6218317;23;20398;-86
2023/02/07 23:13:02;;;;;;;2.47;2.27;;;20.40;56.60;;;;;;6217858;23;20402;-87
2023/02/07 23:15:29;;;;;;;2.10;2.00;;;20.40;56.60;;;;;;6218201;23;20533;-86
2023/02/07 23:17:55;;;;;;;2.37;1.80;;;20.40;56.60;;;;;;6222512;23;20405;-86
2023/02/07 23:20:22;;;;;;;2.17;1.97;;;20.40;56.60;;;;;;6234402;23;20725;-86
2023/02/07 23:22:49;;;;;;;2.83;1.97;;;20.40;56.60;;;;;;6232537;23;20437;-86
2023/02/07 23:25:16;;;;;;;1.90;1.80;;;20.40;56.60;;;;;;6231059;23;20476;-86
2023/02/07 23:27:43;;;;;;;3.77;2.53;;;20.40;56.60;;;;;;6219988;23;20781;-85
2023/02/07 23:30:14;;;;;;;2.57;2.13;;;20.30;56.60;;;;;;6219482;23;20394;-85
2023/02/07 23:32:43;;;;;;;2.00;1.90;;;20.30;56.60;;;;;;6218450;23;20397;-85
2023/02/07 23:35:10;;;;;;;2.47;2.27;;;20.30;56.50;;;;;;6218266;23;20529;-86
2023/02/07 23:37:37;;;;;;;2.33;2.13;;;20.30;56.60;;;;;;6218120;23;20529;-86
2023/02/07 23:40:04;;;;;;;2.97;2.03;;;20.30;56.60;;;;;;6218720;23;20402;-86
2023/02/07 23:42:31;;;;;;;2.37;2.17;;;20.30;56.50;;;;;;6218811;23;20412;-86
2023/02/07 23:44:57;;;;;;;2.73;2.53;;;20.30;56.50;;;;;;6219024;23;20406;-85
2023/02/07 23:47:25;;;;;;;2.10;2.00;;;20.30;56.50;;;;;;6217586;23;20408;-85
2023/02/07 23:49:52;;;;;;;2.17;2.07;;;20.30;56.50;;;;;;6217871;23;20400;-86
2023/02/07 23:52:19;;;;;;;2.00;1.80;;;20.30;56.50;;;;;;6218089;23;20405;-86
2023/02/07 23:54:46;;;;;;;2.20;2.00;;;20.30;56.50;;;;;;6217811;23;20544;-85
2023/02/07 23:57:12;;;;;;;2.53;2.33;;;20.50;56.60;;;;;;6223950;23;20457;-86
2023/02/07 23:59:39;;;;;;;2.57;2.37;;;20.20;56.40;;;;;;6241033;23;20410;-86
